Kagoshima, Japan

6:19 PM JST on February 27, 2017 (GMT +0900)
Kagoshima | | Change Station

Elev 902 ft 31.80 °N, 130.72 °E | Updated 19 minutes ago

Clear
Clear
48 °F
Feels Like 48 °F
N
10
Wind Variable Wind from NW

Today
High -- | Low -- °F
--% Chance of Precip.
Yesterday
High -- | Low -- °F
Precip. -- in
Pressure 30.18 in
Visibility 6.2 miles
Clouds Few 3000 ft
Dew Point 27 °F
Humidity 43%
Rainfall 0.00 in
Snow Depth Not available.
6:47 AM 6:14 PM
New Moon, 1% visible
METAR RJFK 270900Z 32009KT 9999 FEW030 09/M03 Q1022 RMK 1CU030 A3018
Pressure 30.18 in
Visibility 6.2 miles
Clouds Few 3000 ft
Dew Point 27 °F
Humidity 43%
Rainfall 0.00 in
Snow Depth Not available.
6:47 AM 6:14 PM
New Moon, 1% visible
METAR RJFK 270900Z 32009KT 9999 FEW030 09/M03 Q1022 RMK 1CU030 A3018

Get Your Daily Forecast Email!

Thanks for signing up!

Be on the lookout for a verification email in your inbox.

You'll start receiving the daily forecast at 8 AM.

×

10-Day Weather Forecast

No radar image for this location.
×

Almanac

Astronomy

Feb. 27, 2017 Rise Set
Actual Time
Civil Twilight
Nautical Twilight
Astronomical Twilight
Moon
Length of Visible Light
Length of Day
Tomorrow will be .
, % of the Moon is Illuminated

Today's Extremes

Country Highs Country Lows

Community

WunderPhotos

Upload Photos

1,962,540 photos uploaded!

WunderBlog® & News

Nearby

Air Quality

  Air Quality AQ Index Pollutant
Not available.

Snow Depth

Station Depth Elevation

Earthquake Activity

City Distance Mag. Time & Date
Minimum magnitude displayed is 2.5.

Coastal Water Temperatures

Place Temperature

Stations

Nearby Weather Stations

Station Location Temp. Windchill Dew Point Humidity Wind Precip. Elev Updated Type